This is the latest recevied weather packets stored in our database for station/object R1ZCU-14. If no packets are shown the sender has not sent any weather packets the latest 10 day(s).
| Time | Temp. | Humidity | Pressure | Rain* | Wind** | Luminosity | Snow |
|---|---|---|---|---|---|---|---|
| 1777813834 | 6.11° C | 37% | 993.9 hPa | - | - | - | - |
| 1777813233 | 6.11° C | 37% | 993.9 hPa | - | - | - | - |
| 1777812633 | 6.11° C | 37% | 993.8 hPa | - | - | - | - |
| 1777812032 | 6.11° C | 36% | 993.8 hPa | - | - | - | - |
| 1777811432 | 6.11° C | 35% | 993.7 hPa | - | - | - | - |
| 1777810831 | 6.11° C | 36% | 993.7 hPa | - | - | - | - |
| 1777810231 | 6.11° C | 35% | 993.7 hPa | - | - | - | - |
| 1777809630 | 6.11° C | 35% | 993.6 hPa | - | - | - | - |
| 1777809030 | 6.11° C | 35% | 993.7 hPa | - | - | - | - |
| 1777808429 | 6.11° C | 35% | 993.6 hPa | - | - | - | - |
| 1777807829 | 6.67° C | 34% | 993.4 hPa | - | - | - | - |
| 1777807228 | 6.11° C | 35% | 993.3 hPa | - | - | - | - |
| 1777806628 | 6.11° C | 35% | 993 hPa | - | - | - | - |
| 1777806028 | 6.11° C | 35% | 993.2 hPa | - | - | - | - |
| 1777805427 | 6.67° C | 33% | 993 hPa | - | - | - | - |
| 1777804827 | 6.67° C | 34% | 992.9 hPa | - | - | - | - |
| 1777804226 | 7.22° C | 34% | 992.9 hPa | - | - | - | - |
| 1777803626 | 6.67° C | 35% | 992.8 hPa | - | - | - | - |
| 1777803025 | 6.67° C | 35% | 992.7 hPa | - | - | - | - |
| 1777802425 | 6.67° C | 34% | 992.8 hPa | - | - | - | - |
| 1777801824 | 7.22° C | 33% | 992.6 hPa | - | - | - | - |
| 1777801224 | 7.78° C | 32% | 992.6 hPa | - | - | - | - |
| 1777800623 | 11.11° C | 23% | 991.8 hPa | - | - | - | - |
| 1777800023 | 13.89° C | 20% | 991.7 hPa | - | - | - | - |
| 1777799422 | 13.89° C | 21% | 992.3 hPa | - | - | - | - |
* Rain since midnight (hover to see other rain measurements)
** Current wind speed in m/s (hover to see current wind gust speed)